Time;durP1;ratioP1;P1;durP2;ratioP2;P2;SDS_P1;SDS_P2;PMS_P1;PMS_P2;Temp;Humidity;BMP_temperature;BMP_pressure;BME280_temperature;BME280_humidity;BME280_pressure;Samples;Min_cycle;Max_cycle;Signal;HPM_P1;HPM_P2
2021/05/28 00:00:58;;;;;;;0.40;0.40;;;;;;;-144.31;100.00;75359.91;5015410;28;20049;-75
2021/05/28 00:03:24;;;;;;;0.50;0.50;;;;;;;-144.31;100.00;75377.88;4990071;28;20719;-75
2021/05/28 00:05:49;;;;;;;0.50;0.50;;;;;;;-144.31;100.00;75381.88;5004113;28;20046;-75
2021/05/28 00:08:15;;;;;;;0.50;0.50;;;;;;;-144.31;100.00;75385.88;5002711;28;20471;-75
2021/05/28 00:10:40;;;;;;;0.50;0.50;;;;;;;-144.31;100.00;75403.84;5016990;28;20038;-75
2021/05/28 00:13:06;;;;;;;0.50;0.50;;;;;;;-144.31;100.00;75403.84;4987797;28;20538;-75
2021/05/28 00:15:34;;;;;;;0.50;0.50;;;;;;;-144.31;100.00;75405.84;5004640;28;20543;-75
2021/05/28 00:18:00;;;;;;;0.40;0.40;;;;;;;-144.31;100.00;75407.84;5008767;28;20046;-75
2021/05/28 00:20:26;;;;;;;0.50;0.50;;;;;;;-144.31;100.00;75411.81;5007323;28;20040;-75
2021/05/28 00:22:52;;;;;;;0.50;0.50;;;;;;;-144.31;100.00;75411.81;4998372;28;20037;-75
2021/05/28 00:25:20;;;;;;;0.50;0.50;;;;;;;-144.31;100.00;75403.84;4986039;28;20504;-75
2021/05/28 00:27:46;;;;;;;0.40;0.40;;;;;;;-144.31;100.00;75407.84;4985429;28;20112;-75
2021/05/28 00:30:12;;;;;;;0.50;0.50;;;;;;;-144.31;100.00;75413.81;5002911;28;20046;-75
2021/05/28 00:32:38;;;;;;;0.50;0.50;;;;;;;-144.31;100.00;75415.81;5007873;28;20653;-75
2021/05/28 00:35:05;;;;;;;0.50;0.50;;;;;;;-144.31;100.00;75413.81;5006572;28;20042;-77
2021/05/28 00:37:31;;;;;;;0.50;0.50;;;;;;;-144.31;100.00;75409.84;5008508;28;20507;-75
2021/05/28 00:39:59;;;;;;;0.50;0.50;;;;;;;-144.31;100.00;75409.84;5024314;28;20108;-76
2021/05/28 00:42:24;;;;;;;0.50;0.50;;;;;;;-144.31;100.00;75413.81;5007839;28;20050;-76
2021/05/28 00:44:50;;;;;;;0.50;0.50;;;;;;;-144.31;100.00;75417.81;5024883;28;20049;-76
2021/05/28 00:47:16;;;;;;;0.50;0.50;;;;;;;-144.31;100.00;75425.81;5007104;28;20061;-76
2021/05/28 00:49:41;;;;;;;0.50;0.50;;;;;;;-144.31;100.00;75433.78;5008047;28;20061;-76
2021/05/28 00:52:07;;;;;;;0.50;0.50;;;;;;;-144.31;100.00;75429.81;4990305;28;20539;-75
2021/05/28 00:54:33;;;;;;;0.50;0.50;;;;;;;-144.31;100.00;75433.78;4988898;28;20496;-76
2021/05/28 00:56:58;;;;;;;0.52;0.52;;;;;;;-144.31;100.00;75435.78;4995629;28;20415;-76
2021/05/28 00:59:26;;;;;;;0.52;0.52;;;;;;;-144.31;100.00;75437.78;4975160;28;20557;-76
2021/05/28 01:01:52;;;;;;;0.50;0.50;;;;;;;-144.31;100.00;75431.81;4995654;28;20038;-76
2021/05/28 01:04:18;;;;;;;0.60;0.60;;;;;;;-144.31;100.00;75431.81;5008663;28;20046;-76
2021/05/28 01:06:44;;;;;;;0.50;0.50;;;;;;;-144.31;100.00;75431.81;5008060;28;20324;-76
2021/05/28 01:09:09;;;;;;;0.52;0.52;;;;;;;-144.31;100.00;75427.81;5005883;28;20544;-76
2021/05/28 01:11:37;;;;;;;0.50;0.50;;;;;;;-144.31;100.00;75425.81;5005776;28;20050;-76
2021/05/28 01:14:03;;;;;;;0.50;0.50;;;;;;;-144.31;100.00;75433.78;5008251;28;20064;-76
2021/05/28 01:16:29;;;;;;;0.50;0.50;;;;;;;-144.31;100.00;75437.78;5005366;28;20195;-76
2021/05/28 01:18:55;;;;;;;0.50;0.50;;;;;;;-144.31;100.00;75439.78;5006957;28;20136;-76
2021/05/28 01:21:23;;;;;;;0.50;0.50;;;;;;;-144.31;100.00;75447.78;5007471;28;20068;-76
2021/05/28 01:23:48;;;;;;;0.50;0.50;;;;;;;-144.31;100.00;75445.78;5006979;28;20046;-76
2021/05/28 01:26:14;;;;;;;0.50;0.50;;;;;;;-144.31;100.00;75453.78;5001798;28;20045;-76
2021/05/28 01:28:40;;;;;;;0.50;0.50;;;;;;;-144.31;100.00;75445.78;5022501;28;20477;-76
2021/05/28 01:31:06;;;;;;;0.50;0.50;;;;;;;-144.31;100.00;75445.78;5006008;28;20049;-76
2021/05/28 01:33:37;;;;;;;0.50;0.50;;;;;;;-144.31;100.00;75441.78;5022646;28;20104;-76
2021/05/28 01:36:04;;;;;;;0.50;0.50;;;;;;;-144.31;100.00;75445.78;5006205;28;20045;-76
2021/05/28 01:38:29;;;;;;;0.50;0.50;;;;;;;-144.31;100.00;75443.78;4988185;28;20368;-76
2021/05/28 01:40:57;;;;;;;0.50;0.50;;;;;;;-144.31;100.00;75445.78;5004156;28;20046;-76
2021/05/28 01:43:22;;;;;;;0.50;0.50;;;;;;;-144.31;100.00;75449.78;5022328;28;20045;-76
2021/05/28 01:45:48;;;;;;;0.50;0.50;;;;;;;-144.31;100.00;75447.78;5007849;28;20046;-76
2021/05/28 01:48:13;;;;;;;0.50;0.50;;;;;;;-144.31;100.00;75443.78;5022226;28;20041;-76
2021/05/28 01:50:44;;;;;;;0.50;0.50;;;;;;;-144.31;100.00;75441.78;5007955;28;20340;-76
2021/05/28 01:53:16;;;;;;;0.50;0.50;;;;;;;-144.31;100.00;75449.78;5014742;28;20045;-76
2021/05/28 01:55:44;;;;;;;0.50;0.50;;;;;;;-144.31;100.00;75449.78;4971730;28;20555;-76
2021/05/28 01:58:15;;;;;;;0.50;0.50;;;;;;;-144.31;100.00;75445.78;5002654;28;20654;-76
2021/05/28 02:00:44;;;;;;;0.50;0.50;;;;;;;-144.31;100.00;75445.78;5020838;28;20054;-76
2021/05/28 02:03:10;;;;;;;0.50;0.50;;;;;;;-144.31;100.00;75451.78;5003755;28;20485;-76
2021/05/28 02:05:36;;;;;;;0.50;0.50;;;;;;;-144.31;100.00;75453.78;5005625;28;20050;-76
2021/05/28 02:08:03;;;;;;;0.50;0.50;;;;;;;-144.31;100.00;75449.78;5008400;28;20139;-76
2021/05/28 02:10:30;;;;;;;0.50;0.50;;;;;;;-144.31;100.00;75455.78;5005072;28;20192;-76
2021/05/28 02:12:57;;;;;;;0.52;0.52;;;;;;;-144.31;100.00;75457.75;5002785;28;20042;-76
2021/05/28 02:15:25;;;;;;;0.57;0.57;;;;;;;-144.31;100.00;75463.75;5005810;28;20049;-76
2021/05/28 02:17:51;;;;;;;0.50;0.50;;;;;;;-144.31;100.00;75469.75;5008504;28;20106;-76
2021/05/28 02:20:17;;;;;;;0.50;0.50;;;;;;;-144.31;100.00;75469.75;4988618;28;20039;-76
2021/05/28 02:22:43;;;;;;;0.50;0.50;;;;;;;-144.31;100.00;75465.75;4986788;28;20057;-76
2021/05/28 02:25:11;;;;;;;0.50;0.50;;;;;;;-144.31;100.00;75465.75;4984640;28;20076;-76
2021/05/28 02:27:36;;;;;;;0.40;0.40;;;;;;;-144.31;100.00;75475.75;4987101;28;20436;-76
2021/05/28 02:30:06;;;;;;;0.50;0.50;;;;;;;-144.31;100.00;75475.75;5001432;28;20103;-76
2021/05/28 02:32:32;;;;;;;0.50;0.50;;;;;;;-144.31;100.00;75471.75;5004131;28;20407;-76
2021/05/28 02:34:58;;;;;;;0.50;0.50;;;;;;;-144.31;100.00;75475.75;5004252;28;20584;-76
2021/05/28 02:37:24;;;;;;;0.50;0.50;;;;;;;-144.31;100.00;75485.72;5003013;28;20108;-76
2021/05/28 02:39:50;;;;;;;0.50;0.50;;;;;;;-144.31;100.00;75497.72;5007465;28;20443;-76
2021/05/28 02:42:15;;;;;;;0.50;0.50;;;;;;;-144.31;100.00;75501.69;5005975;28;20053;-76
2021/05/28 02:44:41;;;;;;;0.60;0.60;;;;;;;-144.31;100.00;75501.69;5004148;28;20041;-76
2021/05/28 02:47:07;;;;;;;0.60;0.60;;;;;;;-144.31;100.00;75497.72;5006283;28;20076;-76
2021/05/28 02:49:35;;;;;;;0.60;0.60;;;;;;;-144.31;100.00;75505.69;5006766;28;20115;-76
2021/05/28 02:52:01;;;;;;;0.60;0.60;;;;;;;-144.31;100.00;75501.69;4993170;28;20084;-76
2021/05/28 02:54:27;;;;;;;0.57;0.57;;;;;;;-144.31;100.00;75503.69;4985259;28;20065;-76
2021/05/28 02:56:58;;;;;;;0.50;0.50;;;;;;;-144.31;100.00;75505.69;4991108;28;20132;-75
2021/05/28 02:59:24;;;;;;;0.50;0.50;;;;;;;-144.31;100.00;75507.69;5021808;28;21982;-77
2021/05/28 03:01:50;;;;;;;0.50;0.50;;;;;;;-144.31;100.00;75509.69;5020146;28;20046;-76
2021/05/28 03:04:16;;;;;;;0.50;0.50;;;;;;;-144.31;100.00;75513.69;5004948;28;20145;-76
2021/05/28 03:06:45;;;;;;;0.60;0.60;;;;;;;-144.31;100.00;75513.69;5004473;28;20132;-75
2021/05/28 03:09:11;;;;;;;0.52;0.52;;;;;;;-144.31;100.00;75515.69;5005155;28;20677;-76
2021/05/28 03:11:37;;;;;;;0.50;0.50;;;;;;;-144.31;100.00;75521.69;4988908;28;20050;-75
2021/05/28 03:14:05;;;;;;;0.50;0.50;;;;;;;-144.31;100.00;75541.66;5007800;28;20099;-75
2021/05/28 03:16:33;;;;;;;0.60;0.60;;;;;;;-144.31;100.00;75545.66;5019936;28;20169;-75
2021/05/28 03:19:03;;;;;;;0.50;0.50;;;;;;;-144.31;100.00;75547.63;5005753;28;20799;-76
2021/05/28 03:23:59;;;;;;;0.50;0.50;;;;;;;-144.31;100.00;75529.66;5005406;28;20053;-76
2021/05/28 03:26:29;;;;;;;0.50;0.50;;;;;;;-144.31;100.00;75527.66;5003625;28;20053;-75
2021/05/28 03:28:55;;;;;;;;;;;;;;;-144.31;100.00;75521.69;4989481;28;20264;-75
2021/05/28 03:31:24;;;;;;;0.50;0.50;;;;;;;-144.31;100.00;75509.69;5004348;28;19917;-76
2021/05/28 03:33:52;;;;;;;0.50;0.50;;;;;;;-144.31;100.00;75513.69;5002854;28;20042;-76
2021/05/28 03:36:22;;;;;;;0.60;0.60;;;;;;;-144.31;100.00;75511.69;5003177;28;20072;-76
2021/05/28 03:38:47;;;;;;;0.50;0.50;;;;;;;-144.31;100.00;75513.69;5020747;28;20585;-76
2021/05/28 03:41:14;;;;;;;0.60;0.60;;;;;;;-144.31;100.00;75513.69;5004581;28;20030;-75
2021/05/28 03:43:39;;;;;;;0.50;0.50;;;;;;;-144.31;100.00;75507.69;4998893;28;20108;-76
2021/05/28 03:46:05;;;;;;;0.52;0.52;;;;;;;-144.31;100.00;75509.69;4984350;28;20050;-76
2021/05/28 03:48:31;;;;;;;0.50;0.50;;;;;;;-144.31;100.00;75507.69;4999919;28;20046;-75
2021/05/28 03:50:57;;;;;;;0.50;0.50;;;;;;;-144.31;100.00;75509.69;5004807;28;20042;-75
2021/05/28 03:53:23;;;;;;;0.50;0.50;;;;;;;-144.31;100.00;75507.69;4987649;28;20040;-76
2021/05/28 03:55:48;;;;;;;0.60;0.60;;;;;;;-144.31;100.00;75505.69;4988324;28;20045;-75
2021/05/28 03:58:14;;;;;;;0.50;0.50;;;;;;;-144.31;100.00;75497.72;5003300;28;20080;-75
2021/05/28 04:00:40;;;;;;;0.60;0.60;;;;;;;-144.31;100.00;75499.72;5005540;28;20065;-75
2021/05/28 04:03:06;;;;;;;0.50;0.50;;;;;;;-144.31;100.00;75493.72;5001810;28;20109;-76
2021/05/28 04:05:33;;;;;;;0.60;0.60;;;;;;;-144.31;100.00;75497.72;4985600;28;20152;-75
2021/05/28 04:07:59;;;;;;;0.60;0.60;;;;;;;-144.31;100.00;75501.69;5006675;28;20053;-75
2021/05/28 04:10:24;;;;;;;0.57;0.57;;;;;;;-144.31;100.00;75497.72;5002031;28;20046;-75
2021/05/28 04:12:53;;;;;;;0.60;0.60;;;;;;;-144.31;100.00;75493.72;4999578;28;20087;-75
2021/05/28 04:15:18;;;;;;;0.50;0.50;;;;;;;-144.31;100.00;75495.72;5001692;28;20046;-76
2021/05/28 04:17:44;;;;;;;0.60;0.60;;;;;;;-144.31;100.00;75489.72;5004705;28;20048;-75
2021/05/28 04:20:12;;;;;;;0.50;0.50;;;;;;;-144.31;100.00;75481.72;5004053;28;20332;-76
2021/05/28 04:22:41;;;;;;;0.60;0.60;;;;;;;-144.31;100.00;75477.72;5001287;28;20055;-76
2021/05/28 04:25:07;;;;;;;0.50;0.50;;;;;;;-144.31;100.00;75469.75;5000033;28;20073;-76
2021/05/28 04:27:33;;;;;;;0.60;0.60;;;;;;;-144.31;100.00;75463.75;5007163;28;20385;-76
2021/05/28 04:29:58;;;;;;;0.50;0.50;;;;;;;-144.31;100.00;75461.75;5005330;28;20052;-75
2021/05/28 04:32:24;;;;;;;0.40;0.40;;;;;;;-144.31;100.00;75459.75;5019680;28;20048;-75
2021/05/28 04:34:49;;;;;;;0.50;0.50;;;;;;;-144.31;100.00;75457.75;5020429;28;20045;-75
2021/05/28 04:37:17;;;;;;;0.50;0.50;;;;;;;-144.31;100.00;75461.75;5003434;28;20074;-75
2021/05/28 04:39:42;;;;;;;0.50;0.50;;;;;;;-144.31;100.00;75455.78;5006010;28;20579;-75
2021/05/28 04:42:08;;;;;;;0.50;0.50;;;;;;;-144.31;100.00;75445.78;4987889;28;20230;-76
2021/05/28 04:44:33;;;;;;;0.60;0.60;;;;;;;-144.31;100.00;75435.78;5020104;28;20053;-75
2021/05/28 04:46:59;;;;;;;0.50;0.50;;;;;;;-144.31;100.00;75419.81;5004337;28;20435;-76
2021/05/28 04:49:24;;;;;;;0.60;0.60;;;;;;;-144.31;100.00;75407.84;5019333;28;20120;-75
2021/05/28 04:51:50;;;;;;;0.50;0.50;;;;;;;-144.31;100.00;75401.84;4968221;28;20420;-75
2021/05/28 04:54:17;;;;;;;0.50;0.50;;;;;;;-144.31;100.00;75389.84;5019339;28;20048;-76
2021/05/28 04:56:43;;;;;;;0.47;0.47;;;;;;;-144.31;100.00;75387.84;5019576;28;20116;-75
2021/05/28 04:59:09;;;;;;;0.50;0.50;;;;;;;-144.31;100.00;75397.84;5020864;28;20045;-76
2021/05/28 05:01:34;;;;;;;0.50;0.50;;;;;;;-144.31;100.00;75403.84;5004397;28;20045;-76
2021/05/28 05:04:00;;;;;;;0.50;0.50;;;;;;;-144.31;100.00;75391.84;5004993;28;20049;-76
2021/05/28 05:06:25;;;;;;;0.50;0.50;;;;;;;-144.31;100.00;75395.84;4995629;28;20225;-76
2021/05/28 05:08:51;;;;;;;0.60;0.60;;;;;;;-144.31;100.00;75387.84;4997672;28;20038;-76
2021/05/28 05:11:16;;;;;;;0.50;0.50;;;;;;;-144.31;100.00;75375.88;4995302;28;20133;-76
2021/05/28 05:13:44;;;;;;;0.55;0.55;;;;;;;-144.31;100.00;75361.91;5011413;28;20042;-76
2021/05/28 05:16:09;;;;;;;0.50;0.50;;;;;;;-144.31;100.00;75367.88;5017403;28;20585;-76
2021/05/28 05:18:35;;;;;;;0.50;0.50;;;;;;;-144.31;100.00;75357.91;5004420;28;20054;-76
2021/05/28 05:21:03;;;;;;;0.40;0.40;;;;;;;-144.31;100.00;75339.94;4988278;28;20046;-76
2021/05/28 05:23:31;;;;;;;0.50;0.50;;;;;;;-144.31;100.00;75367.88;4980505;28;20073;-76
2021/05/28 05:26:01;;;;;;;0.50;0.50;;;;;;;-144.31;100.00;75373.88;5009302;28;20046;-76
2021/05/28 05:28:26;;;;;;;0.47;0.47;;;;;;;-144.31;100.00;75373.88;4998466;28;20054;-76
2021/05/28 05:30:52;;;;;;;0.57;0.57;;;;;;;-144.31;100.00;75361.91;4992686;28;20049;-76
2021/05/28 05:33:17;;;;;;;0.50;0.50;;;;;;;-144.31;100.00;75327.94;5005158;28;20029;-76
2021/05/28 05:35:43;;;;;;;0.50;0.50;;;;;;;-144.31;100.00;75337.94;5009356;28;20073;-76
2021/05/28 05:38:11;;;;;;;0.50;0.50;;;;;;;-144.31;100.00;75349.91;5006416;28;20048;-76
2021/05/28 05:40:38;;;;;;;0.40;0.40;;;;;;;-144.31;100.00;75317.97;5023714;28;20042;-76
2021/05/28 05:43:04;;;;;;;0.43;0.43;;;;;;;-144.31;100.00;75284.00;4989694;28;20046;-78
2021/05/28 05:45:30;;;;;;;0.50;0.50;;;;;;;-144.31;100.00;75268.03;5006731;28;20261;-76
2021/05/28 05:47:58;;;;;;;0.40;0.40;;;;;;;-144.31;100.00;75264.03;4994890;28;20046;-76
2021/05/28 05:50:23;;;;;;;0.45;0.45;;;;;;;-144.31;100.00;75262.03;4997536;28;20041;-76
2021/05/28 05:52:49;;;;;;;0.40;0.40;;;;;;;-144.31;100.00;75256.03;5008453;28;20084;-76
2021/05/28 05:55:17;;;;;;;0.40;0.40;;;;;;;-144.31;100.00;75226.09;5006100;28;20049;-77
2021/05/28 05:57:46;;;;;;;0.40;0.40;;;;;;;-144.31;100.00;75224.09;5007752;28;20061;-77
2021/05/28 06:00:12;;;;;;;0.43;0.43;;;;;;;-144.31;100.00;75196.13;5005537;28;20037;-76
2021/05/28 06:02:38;;;;;;;0.40;0.40;;;;;;;-144.31;100.00;75188.16;4987332;28;20046;-76
2021/05/28 06:05:06;;;;;;;0.40;0.40;;;;;;;-144.31;100.00;75166.19;5008554;28;20042;-77
2021/05/28 06:07:31;;;;;;;0.40;0.40;;;;;;;-144.31;100.00;75158.19;5022406;28;20108;-77
2021/05/28 06:09:57;;;;;;;0.40;0.40;;;;;;;-144.31;100.00;75142.22;5023121;28;20038;-76
2021/05/28 06:12:23;;;;;;;0.40;0.40;;;;;;;-144.31;100.00;75144.22;5023008;28;20090;-77
2021/05/28 06:14:48;;;;;;;0.40;0.40;;;;;;;-144.31;100.00;75138.22;5006991;28;20268;-77
2021/05/28 06:17:16;;;;;;;0.40;0.40;;;;;;;-144.31;100.00;75150.19;5006849;28;20515;-77
2021/05/28 06:19:41;;;;;;;0.40;0.40;;;;;;;-144.31;100.00;75134.22;5015387;28;20050;-77
2021/05/28 06:22:07;;;;;;;0.40;0.40;;;;;;;-144.31;100.00;75102.28;4971473;28;20046;-77
2021/05/28 06:24:32;;;;;;;0.40;0.40;;;;;;;-144.31;100.00;75128.22;4993994;28;20049;-77
2021/05/28 06:26:58;;;;;;;0.40;0.40;;;;;;;-144.31;100.00;75138.22;5009778;28;20126;-77
2021/05/28 06:29:23;;;;;;;0.40;0.40;;;;;;;-144.31;100.00;75134.22;4995168;28;20054;-76
2021/05/28 06:31:51;;;;;;;0.40;0.40;;;;;;;-144.31;100.00;75034.38;5004188;28;20515;-76
2021/05/28 06:34:17;;;;;;;0.40;0.40;;;;;;;-144.31;100.00;75058.34;5006746;28;20237;-76
2021/05/28 06:36:42;;;;;;;0.40;0.40;;;;;;;-144.31;100.00;75028.38;5006044;28;20499;-76
2021/05/28 06:39:10;;;;;;;0.40;0.40;;;;;;;-144.31;100.00;75108.25;5002207;28;20407;-76
2021/05/28 06:41:36;;;;;;;0.30;0.30;;;;;;;-144.31;100.00;75102.28;5000391;28;20261;-76
2021/05/28 06:44:05;;;;;;;0.30;0.30;;;;;;;-144.31;100.00;75116.25;4996233;28;20050;-76
2021/05/28 06:46:30;;;;;;;0.40;0.40;;;;;;;-144.31;100.00;75072.31;5022968;28;20184;-76
2021/05/28 06:48:58;;;;;;;0.30;0.30;;;;;;;-144.31;100.00;75054.34;4990835;28;20117;-76
2021/05/28 06:51:26;;;;;;;0.40;0.40;;;;;;;-144.31;100.00;75034.38;4992672;28;20064;-76
2021/05/28 06:53:54;;;;;;;0.40;0.40;;;;;;;-144.31;100.00;75056.34;5013379;28;20124;-76
2021/05/28 06:56:20;;;;;;;0.40;0.40;;;;;;;-144.31;100.00;75052.34;4994237;28;20041;-76
2021/05/28 06:58:50;;;;;;;0.40;0.40;;;;;;;-144.31;100.00;75048.34;4999576;28;20527;-76
2021/05/28 07:01:17;;;;;;;0.40;0.40;;;;;;;-144.31;100.00;75048.34;4999073;28;20772;-76
2021/05/28 07:03:42;;;;;;;0.40;0.40;;;;;;;-144.31;100.00;75112.25;5021692;28;20054;-76
2021/05/28 07:06:08;;;;;;;0.40;0.40;;;;;;;-144.31;100.00;75074.31;4998607;28;20532;-77
2021/05/28 07:08:34;;;;;;;0.32;0.32;;;;;;;-144.31;100.00;74986.44;4984827;28;20042;-77
2021/05/28 07:10:59;;;;;;;0.30;0.30;;;;;;;-144.31;100.00;74920.53;5016777;28;20080;-76
2021/05/28 07:13:25;;;;;;;0.40;0.40;;;;;;;-144.31;100.00;74954.47;5003708;28;20088;-77
2021/05/28 07:15:51;;;;;;;0.40;0.40;;;;;;;-144.31;100.00;74938.50;4984446;28;20530;-76
2021/05/28 07:18:18;;;;;;;0.40;0.40;;;;;;;-144.31;100.00;74894.56;4998369;28;20096;-77
2021/05/28 07:20:47;;;;;;;0.30;0.30;;;;;;;-144.31;100.00;74842.66;5002090;28;20042;-77
2021/05/28 07:23:12;;;;;;;0.30;0.30;;;;;;;-144.31;100.00;74842.66;5021115;28;20049;-77
2021/05/28 07:25:38;;;;;;;0.40;0.40;;;;;;;-144.31;100.00;74788.75;4981565;28;20038;-77
2021/05/28 07:28:04;;;;;;;0.40;0.40;;;;;;;-144.31;100.00;74772.75;4994806;28;20046;-77
2021/05/28 07:30:30;;;;;;;0.30;0.30;;;;;;;-144.31;100.00;74762.78;4988295;28;20414;-72
2021/05/28 07:32:55;;;;;;;0.30;0.30;;;;;;;-144.31;100.00;74834.66;5000787;28;20346;-71
2021/05/28 07:35:21;;;;;;;0.30;0.30;;;;;;;-144.31;100.00;74744.81;4995971;28;20611;-71
2021/05/28 07:37:46;;;;;;;0.30;0.30;;;;;;;-144.31;100.00;74668.91;4998176;28;20050;-71
2021/05/28 07:40:15;;;;;;;0.30;0.30;;;;;;;-144.31;100.00;74752.78;5016120;28;20056;-76
2021/05/28 07:42:41;;;;;;;0.30;0.30;;;;;;;-144.31;100.00;74748.81;4995931;28;20038;-77
2021/05/28 07:45:07;;;;;;;0.30;0.30;;;;;;;-144.31;100.00;74730.81;4986336;28;20547;-77
2021/05/28 07:47:33;;;;;;;0.30;0.30;;;;;;;-144.31;100.00;74796.72;5005952;28;20049;-77
2021/05/28 07:50:01;;;;;;;0.30;0.30;;;;;;;-144.31;100.00;74854.63;5020743;28;20447;-71
2021/05/28 07:52:27;;;;;;;0.30;0.30;;;;;;;-144.31;100.00;74684.91;5016701;28;20503;-72
2021/05/28 07:54:52;;;;;;;0.30;0.30;;;;;;;-144.31;100.00;74648.94;5019674;28;20076;-75
2021/05/28 07:57:18;;;;;;;0.20;0.20;;;;;;;-144.31;100.00;74684.91;4996609;28;20045;-76
2021/05/28 07:59:44;;;;;;;0.30;0.30;;;;;;;-144.31;100.00;74581.06;5007712;28;20052;-75
2021/05/28 08:02:09;;;;;;;0.30;0.30;;;;;;;-144.31;100.00;74565.09;5006084;28;20075;-74
2021/05/28 08:04:35;;;;;;;0.30;0.30;;;;;;;-144.31;100.00;74583.06;5003941;28;20086;-76
2021/05/28 08:07:00;;;;;;;0.30;0.30;;;;;;;-144.31;100.00;74533.13;5007488;28;20511;-76
2021/05/28 08:09:28;;;;;;;0.30;0.30;;;;;;;-144.31;100.00;74615.00;5022131;28;20049;-76
2021/05/28 08:11:54;;;;;;;0.30;0.30;;;;;;;-144.31;100.00;74603.03;5019985;28;20087;-76
2021/05/28 08:14:19;;;;;;;0.30;0.30;;;;;;;-144.31;100.00;74619.00;4999335;28;20105;-74
2021/05/28 08:16:45;;;;;;;0.30;0.30;;;;;;;-144.31;100.00;74513.16;5000907;28;20440;-76
2021/05/28 08:19:10;;;;;;;0.30;0.30;;;;;;;-144.31;100.00;74435.28;4997997;28;20404;-76
2021/05/28 08:21:36;;;;;;;0.30;0.30;;;;;;;-144.31;100.00;74541.13;5000948;28;20245;-75
2021/05/28 08:24:04;;;;;;;0.30;0.30;;;;;;;-144.31;100.00;74427.31;5022126;28;20050;-75
2021/05/28 08:26:30;;;;;;;0.40;0.40;;;;;;;-144.31;100.00;74593.03;5000765;28;20089;-76
2021/05/28 08:28:58;;;;;;;0.30;0.30;;;;;;;-144.31;100.00;74399.34;4999071;28;20044;-74
2021/05/28 08:31:23;;;;;;;0.30;0.30;;;;;;;-144.31;100.00;74475.22;4996128;28;20054;-76
2021/05/28 08:33:49;;;;;;;0.20;0.20;;;;;;;-144.31;100.00;74525.16;4996061;28;20054;-76
2021/05/28 08:36:14;;;;;;;0.30;0.30;;;;;;;-144.31;100.00;74575.06;4987283;28;20050;-76
2021/05/28 08:38:42;;;;;;;0.30;0.30;;;;;;;-144.31;100.00;74615.00;4983866;28;20452;-76
2021/05/28 08:41:13;;;;;;;0.25;0.25;;;;;;;-144.31;100.00;74485.22;4993128;28;20068;-76
2021/05/28 08:43:42;;;;;;;0.20;0.20;;;;;;;-144.31;100.00;74443.28;5006149;28;20312;-75
2021/05/28 08:46:10;;;;;;;0.30;0.30;;;;;;;-144.31;100.00;74495.19;5011182;28;20509;-76
2021/05/28 08:48:36;;;;;;;0.30;0.30;;;;;;;-144.31;100.00;74395.38;5006247;28;20061;-77
2021/05/28 08:51:01;;;;;;;0.30;0.30;;;;;;;-144.31;100.00;74421.31;5016821;28;20034;-74
2021/05/28 08:53:28;;;;;;;0.20;0.20;;;;;;;-144.31;100.00;74421.31;5004147;28;20463;-76
2021/05/28 08:55:56;;;;;;;0.30;0.30;;;;;;;-144.31;100.00;74341.44;5009927;28;20139;-77
2021/05/28 08:58:22;;;;;;;0.20;0.20;;;;;;;-144.31;100.00;74491.22;5020645;28;20037;-77
2021/05/28 09:00:48;;;;;;;0.28;0.28;;;;;;;-144.31;100.00;74537.13;5026482;28;20072;-77
2021/05/28 09:03:27;;;;;;;0.30;0.30;;;;;;;-144.31;100.00;74393.38;5025549;28;20042;-73
2021/05/28 09:06:17;;;;;;;0.30;0.30;;;;;;;-144.31;100.00;74491.22;4998531;28;20082;-77
2021/05/28 09:08:43;;;;;;;0.30;0.30;;;;;;;-144.31;100.00;74447.28;4987924;28;20500;-75
2021/05/28 09:11:11;;;;;;;0.30;0.30;;;;;;;-144.31;100.00;74429.31;5005620;28;20041;-73
2021/05/28 09:13:47;;;;;;;0.30;0.30;;;;;;;-144.31;100.00;74373.41;4995542;28;20038;-76
2021/05/28 09:16:22;;;;;;;0.30;0.30;;;;;;;-144.31;100.00;74311.50;5003592;28;20072;-76
2021/05/28 09:18:58;;;;;;;0.20;0.20;;;;;;;-144.31;100.00;74537.13;5024835;28;20385;-76
2021/05/28 09:21:32;;;;;;;0.20;0.20;;;;;;;-144.31;100.00;74473.22;5007920;28;20045;-76
2021/05/28 09:24:01;;;;;;;0.28;0.28;;;;;;;-144.31;100.00;74565.09;5025073;28;20115;-77
2021/05/28 09:26:28;;;;;;;0.20;0.20;;;;;;;-144.31;100.00;74577.06;4995698;28;20054;-77
2021/05/28 09:28:55;;;;;;;0.20;0.20;;;;;;;-144.31;100.00;74535.13;4989760;28;20046;-76
2021/05/28 09:31:22;;;;;;;0.27;0.27;;;;;;;-144.31;100.00;74559.09;5009789;28;20128;-77
2021/05/28 09:33:50;;;;;;;0.30;0.30;;;;;;;-144.31;100.00;74563.09;5009688;28;20487;-77
2021/05/28 09:36:36;;;;;;;0.20;0.20;;;;;;;-144.31;100.00;74579.06;5008089;28;20105;-78
2021/05/28 09:39:08;;;;;;;0.30;0.30;;;;;;;-144.31;100.00;74585.06;4989014;28;20046;-75
2021/05/28 09:41:34;;;;;;;0.30;0.30;;;;;;;-144.31;100.00;74630.97;4986843;28;20568;-77
2021/05/28 09:44:15;;;;;;;0.30;0.30;;;;;;;-144.31;100.00;74611.00;4988772;28;20439;-77
2021/05/28 09:47:01;;;;;;;0.30;0.30;;;;;;;-144.31;100.00;74601.03;4987977;28;20046;-77
2021/05/28 09:49:35;;;;;;;0.30;0.30;;;;;;;-144.31;100.00;74625.00;5010196;28;20069;-77
2021/05/28 09:52:24;;;;;;;0.30;0.30;;;;;;;-144.31;100.00;74533.13;5003725;28;20050;-77
2021/05/28 09:55:10;;;;;;;0.30;0.30;;;;;;;-144.31;100.00;74587.06;4986338;28;20081;-76
2021/05/28 09:57:47;;;;;;;0.30;0.30;;;;;;;-144.31;100.00;74551.09;5004123;28;20113;-77
2021/05/28 10:00:34;;;;;;;0.30;0.30;;;;;;;-144.31;100.00;74501.19;5004034;28;20085;-77
2021/05/28 10:03:15;;;;;;;0.30;0.30;;;;;;;-144.31;100.00;74407.34;4987887;28;20136;-75
2021/05/28 10:05:43;;;;;;;0.30;0.30;;;;;;;-144.31;100.00;74435.28;4987588;28;20055;-78
2021/05/28 10:08:11;;;;;;;0.20;0.20;;;;;;;-144.31;100.00;74503.19;4987857;28;20046;-77
2021/05/28 10:10:39;;;;;;;0.25;0.25;;;;;;;-144.31;100.00;74501.19;4989344;28;20101;-78
2021/05/28 10:13:12;;;;;;;0.30;0.30;;;;;;;-144.31;100.00;74347.44;4987022;28;20090;-76
2021/05/28 10:15:40;;;;;;;0.20;0.20;;;;;;;-144.31;100.00;74133.78;4988180;28;20300;-78
2021/05/28 10:18:06;;;;;;;0.30;0.30;;;;;;;-144.31;100.00;74055.94;4997210;28;20114;-77
2021/05/28 10:20:32;;;;;;;0.20;0.20;;;;;;;-144.31;100.00;74279.56;5026671;28;20488;-77
2021/05/28 10:22:57;;;;;;;0.20;0.20;;;;;;;-144.31;100.00;74133.78;5009682;28;20278;-78
2021/05/28 10:25:24;;;;;;;0.20;0.20;;;;;;;-144.31;100.00;74029.97;5005875;28;20046;-77
2021/05/28 10:28:01;;;;;;;0.20;0.20;;;;;;;-144.31;100.00;74161.75;5011310;28;20052;-78
2021/05/28 10:30:34;;;;;;;0.20;0.20;;;;;;;-144.31;100.00;74399.34;5024684;28;20057;-75
2021/05/28 10:33:23;;;;;;;0.20;0.20;;;;;;;-144.31;100.00;74437.28;5006594;28;20141;-77
2021/05/28 10:35:51;;;;;;;0.20;0.20;;;;;;;-144.31;100.00;74339.44;4972763;28;20069;-77
2021/05/28 10:38:36;;;;;;;0.20;0.20;;;;;;;-144.31;100.00;74431.31;4971605;28;20049;-77
2021/05/28 10:41:04;;;;;;;0.20;0.20;;;;;;;-144.31;100.00;74413.34;5005735;28;20045;-77
2021/05/28 10:43:33;;;;;;;0.20;0.20;;;;;;;-144.31;100.00;74267.56;5008248;28;20050;-77
2021/05/28 10:46:00;;;;;;;0.20;0.20;;;;;;;-144.31;100.00;74337.47;4977899;28;20125;-80
2021/05/28 10:48:38;;;;;;;0.20;0.20;;;;;;;-144.31;100.00;74545.13;5009618;28;20140;-81
2021/05/28 10:51:14;;;;;;;0.20;0.20;;;;;;;-144.31;100.00;74411.34;5023122;28;20042;-81
2021/05/28 10:53:55;;;;;;;0.30;0.30;;;;;;;-144.31;100.00;74373.41;5023990;28;20042;-77
2021/05/28 10:56:26;;;;;;;0.20;0.20;;;;;;;-144.31;100.00;73926.16;5006545;28;20410;-77
2021/05/28 10:58:53;;;;;;;0.25;0.25;;;;;;;-144.31;100.00;74119.81;5009393;28;20084;-77
2021/05/28 11:01:31;;;;;;;0.20;0.20;;;;;;;-144.31;100.00;74239.63;4987814;28;20515;-78
2021/05/28 11:03:57;;;;;;;0.20;0.20;;;;;;;-144.31;100.00;74079.88;5003503;28;20049;-77
2021/05/28 11:06:23;;;;;;;0.20;0.20;;;;;;;-144.31;100.00;74205.69;5004350;28;20214;-77
2021/05/28 11:09:02;;;;;;;0.20;0.20;;;;;;;-144.31;100.00;74531.13;5007206;28;20057;-77
2021/05/28 11:11:47;;;;;;;0.20;0.20;;;;;;;-144.31;100.00;74619.00;5021871;28;20042;-76
2021/05/28 11:14:19;;;;;;;0.20;0.20;;;;;;;-144.31;100.00;74579.06;5022255;28;20103;-78